createdAt,value
2017-05-23T00:00:30.985Z,1008.79
2017-05-23T00:01:32.446Z,1008.77
2017-05-23T00:02:33.908Z,1008.77
2017-05-23T00:03:35.374Z,1008.81
2017-05-23T00:04:36.827Z,1008.80
2017-05-23T00:05:38.311Z,1008.80
2017-05-23T00:06:39.757Z,1008.79
2017-05-23T00:07:41.233Z,1008.78
2017-05-23T00:08:42.689Z,1008.77
2017-05-23T00:09:44.152Z,1008.78
2017-05-23T00:10:45.610Z,1008.82
2017-05-23T00:11:47.072Z,1008.82
2017-05-23T00:12:48.607Z,1008.81
2017-05-23T00:13:50.001Z,1008.76
2017-05-23T00:14:51.456Z,1008.78
2017-05-23T00:15:52.917Z,1008.77
2017-05-23T00:16:54.476Z,1008.74
2017-05-23T00:17:55.976Z,1008.73
2017-05-23T00:18:57.380Z,1008.72
2017-05-23T00:19:58.840Z,1008.73
2017-05-23T00:21:00.298Z,1008.73
2017-05-23T00:22:01.753Z,1008.72
2017-05-23T00:23:03.213Z,1008.71
2017-05-23T00:24:04.673Z,1008.70
2017-05-23T00:25:06.133Z,1008.69
2017-05-23T00:26:07.605Z,1008.67
2017-05-23T00:27:09.062Z,1008.65
2017-05-23T00:28:10.522Z,1008.66
2017-05-23T00:29:11.977Z,1008.64
2017-05-23T00:30:13.437Z,1008.63
2017-05-23T00:31:14.898Z,1008.63
2017-05-23T00:32:16.351Z,1008.63
2017-05-23T00:33:17.815Z,1008.63
2017-05-23T00:34:19.271Z,1008.67
2017-05-23T00:35:20.731Z,1008.66
2017-05-23T00:36:22.191Z,1008.65
2017-05-23T00:37:23.643Z,1008.65
2017-05-23T00:38:25.104Z,1008.62
2017-05-23T00:39:26.561Z,1008.60
2017-05-23T00:40:28.015Z,1008.61
2017-05-23T00:41:29.468Z,1008.55
2017-05-23T00:42:30.927Z,1008.58
2017-05-23T00:43:32.387Z,1008.54
2017-05-23T00:44:33.844Z,1008.56
2017-05-23T00:45:35.310Z,1008.52
2017-05-23T00:46:36.763Z,1008.48
2017-05-23T00:47:38.219Z,1008.47
2017-05-23T00:48:39.672Z,1008.44
2017-05-23T00:49:41.130Z,1008.47
2017-05-23T00:50:42.591Z,1008.50
2017-05-23T00:51:44.045Z,1008.47
2017-05-23T00:52:45.507Z,1008.50
2017-05-23T00:53:46.962Z,1008.52
2017-05-23T00:54:48.425Z,1008.47
2017-05-23T00:55:49.883Z,1008.49
2017-05-23T00:56:51.336Z,1008.48
2017-05-23T00:57:52.793Z,1008.51
2017-05-23T00:58:54.250Z,1008.57
2017-05-23T00:59:55.711Z,1008.52
2017-05-23T01:00:57.177Z,1008.56
2017-05-23T01:01:58.623Z,1008.52
2017-05-23T01:03:00.086Z,1008.53
2017-05-23T01:04:01.544Z,1008.56
2017-05-23T01:05:03.003Z,1008.57
2017-05-23T01:06:04.484Z,1008.54
2017-05-23T01:07:05.944Z,1008.54
2017-05-23T01:08:07.393Z,1008.55
2017-05-23T01:09:08.910Z,1008.56
2017-05-23T01:10:10.310Z,1008.52
2017-05-23T01:11:11.769Z,1008.49
2017-05-23T01:12:13.228Z,1008.49
2017-05-23T01:13:14.687Z,1008.51
2017-05-23T01:14:16.151Z,1008.51
2017-05-23T01:15:17.613Z,1008.50
2017-05-23T01:16:19.068Z,1008.51
2017-05-23T01:17:20.522Z,1008.51
2017-05-23T01:18:21.978Z,1008.51
2017-05-23T01:19:23.443Z,1008.53
2017-05-23T01:20:24.903Z,1008.54
2017-05-23T01:21:26.362Z,1008.52
2017-05-23T01:22:27.813Z,1008.52
2017-05-23T01:23:29.271Z,1008.54
2017-05-23T01:24:30.730Z,1008.55
2017-05-23T01:25:32.189Z,1008.51
2017-05-23T01:26:33.648Z,1008.48
2017-05-23T01:27:35.109Z,1008.51
2017-05-23T01:28:36.565Z,1008.51
2017-05-23T01:29:38.018Z,1008.48
2017-05-23T01:30:39.474Z,1008.51
2017-05-23T01:31:40.924Z,1008.51
2017-05-23T01:32:42.389Z,1008.54
2017-05-23T01:33:43.840Z,1008.51
2017-05-23T01:34:45.303Z,1008.50
2017-05-23T01:35:46.753Z,1008.50
2017-05-23T01:36:48.209Z,1008.47
2017-05-23T01:37:49.661Z,1008.51
2017-05-23T01:38:51.117Z,1008.47
2017-05-23T01:39:52.572Z,1008.51
2017-05-23T01:40:54.025Z,1008.48
2017-05-23T01:41:55.483Z,1008.48
2017-05-23T01:42:56.942Z,1008.49
2017-05-23T01:43:58.392Z,1008.49
2017-05-23T01:44:59.851Z,1008.48
2017-05-23T01:46:01.327Z,1008.47
2017-05-23T01:47:02.780Z,1008.45
2017-05-23T01:48:04.242Z,1008.48
2017-05-23T01:49:05.699Z,1008.42
2017-05-23T01:50:07.152Z,1008.42
2017-05-23T01:51:08.607Z,1008.45
2017-05-23T01:52:10.067Z,1008.41
2017-05-23T01:53:11.524Z,1008.38
2017-05-23T01:54:12.979Z,1008.40
2017-05-23T01:55:14.429Z,1008.40
2017-05-23T01:56:15.886Z,1008.41
2017-05-23T01:57:17.342Z,1008.41
2017-05-23T01:58:18.799Z,1008.40
2017-05-23T01:59:20.254Z,1008.43
2017-05-23T02:00:21.727Z,1008.46
2017-05-23T02:01:23.187Z,1008.45
2017-05-23T02:02:24.639Z,1008.41
2017-05-23T02:03:26.189Z,1008.44
2017-05-23T02:04:27.644Z,1008.45
2017-05-23T02:05:29.108Z,1008.45
2017-05-23T02:06:30.561Z,1008.40
2017-05-23T02:07:32.036Z,1008.42
2017-05-23T02:08:33.498Z,1008.40
2017-05-23T02:09:34.956Z,1008.41
2017-05-23T02:10:36.416Z,1008.40
2017-05-23T02:11:37.869Z,1008.42
2017-05-23T02:12:39.324Z,1008.41
2017-05-23T02:13:40.774Z,1008.42
2017-05-23T02:14:42.232Z,1008.42
2017-05-23T02:15:43.692Z,1008.44
2017-05-23T02:16:45.152Z,1008.44
2017-05-23T02:17:46.608Z,1008.45
2017-05-23T02:18:48.063Z,1008.45
2017-05-23T02:19:49.514Z,1008.47
2017-05-23T02:20:50.970Z,1008.48
2017-05-23T02:21:52.434Z,1008.47
2017-05-23T02:22:53.892Z,1008.45
2017-05-23T02:23:55.358Z,1008.45
2017-05-23T02:24:56.814Z,1008.48
2017-05-23T02:25:58.275Z,1008.48
2017-05-23T02:26:59.731Z,1008.46
2017-05-23T02:28:01.189Z,1008.47
2017-05-23T02:29:02.685Z,1008.45
2017-05-23T02:30:04.146Z,1008.46
2017-05-23T02:31:05.601Z,1008.47
2017-05-23T02:32:07.072Z,1008.48
2017-05-23T02:33:08.595Z,1008.46
2017-05-23T02:34:10.039Z,1008.48
2017-05-23T02:35:11.492Z,1008.50
2017-05-23T02:36:12.970Z,1008.49
2017-05-23T02:37:14.456Z,1008.47
2017-05-23T02:38:15.916Z,1008.48
2017-05-23T02:39:17.373Z,1008.47
2017-05-23T02:40:18.830Z,1008.47
2017-05-23T02:41:20.281Z,1008.45
2017-05-23T02:42:21.734Z,1008.49
2017-05-23T02:43:23.188Z,1008.48
2017-05-23T02:44:24.656Z,1008.50
2017-05-23T02:45:26.115Z,1008.49
2017-05-23T02:46:27.573Z,1008.50
2017-05-23T02:47:29.045Z,1008.52
2017-05-23T02:48:30.498Z,1008.53
2017-05-23T02:49:31.953Z,1008.51
2017-05-23T02:50:33.412Z,1008.55
2017-05-23T02:51:34.870Z,1008.50
2017-05-23T02:52:36.326Z,1008.53
2017-05-23T02:53:37.780Z,1008.52
2017-05-23T02:54:39.239Z,1008.50
2017-05-23T02:55:40.699Z,1008.50
2017-05-23T02:56:42.155Z,1008.43
2017-05-23T02:57:43.616Z,1008.46
2017-05-23T02:58:45.083Z,1008.46
2017-05-23T02:59:46.532Z,1008.45
2017-05-23T03:00:47.991Z,1008.44
2017-05-23T03:01:49.452Z,1008.45
2017-05-23T03:02:50.936Z,1008.43
2017-05-23T03:03:52.418Z,1008.40
2017-05-23T03:04:53.880Z,1008.38
2017-05-23T03:05:55.340Z,1008.43
2017-05-23T03:06:56.859Z,1008.37
2017-05-23T03:07:58.317Z,1008.33
2017-05-23T03:08:59.774Z,1008.31
2017-05-23T03:10:01.228Z,1008.28
2017-05-23T03:11:02.745Z,1008.31
2017-05-23T03:12:04.199Z,1008.28
2017-05-23T03:13:05.659Z,1008.25
2017-05-23T03:14:07.119Z,1008.27
2017-05-23T03:15:08.581Z,1008.29
2017-05-23T03:16:10.042Z,1008.28
2017-05-23T03:17:11.510Z,1008.27
2017-05-23T03:18:12.972Z,1008.29
2017-05-23T03:19:14.437Z,1008.28
2017-05-23T03:20:15.962Z,1008.32
2017-05-23T03:21:17.363Z,1008.26
2017-05-23T03:22:18.824Z,1008.28
2017-05-23T03:23:20.285Z,1008.27
2017-05-23T03:24:21.742Z,1008.26
2017-05-23T03:25:23.208Z,1008.26
2017-05-23T03:26:24.666Z,1008.21
2017-05-23T03:27:26.129Z,1008.22
2017-05-23T03:28:27.592Z,1008.23
2017-05-23T03:29:29.044Z,1008.21
2017-05-23T03:30:30.508Z,1008.19
2017-05-23T03:31:31.969Z,1008.19
2017-05-23T03:32:33.551Z,1008.20
2017-05-23T03:33:35.009Z,1008.19
2017-05-23T03:34:36.470Z,1008.19
2017-05-23T03:35:37.935Z,1008.24
2017-05-23T03:36:39.406Z,1008.23
2017-05-23T03:37:40.866Z,1008.22
2017-05-23T03:38:42.330Z,1008.19
2017-05-23T03:39:43.788Z,1008.22
2017-05-23T03:40:45.264Z,1008.20
2017-05-23T03:41:46.725Z,1008.20
2017-05-23T03:42:48.223Z,1008.17
2017-05-23T03:43:49.680Z,1008.22
2017-05-23T03:44:51.138Z,1008.18
2017-05-23T03:45:52.606Z,1008.21
2017-05-23T03:46:54.070Z,1008.17
2017-05-23T03:47:55.529Z,1008.17
2017-05-23T03:48:56.986Z,1008.19
2017-05-23T03:49:58.453Z,1008.19
2017-05-23T03:50:59.914Z,1008.18
2017-05-23T03:52:01.383Z,1008.16
2017-05-23T03:53:02.839Z,1008.20
2017-05-23T03:54:04.308Z,1008.21
2017-05-23T03:55:05.760Z,1008.21
2017-05-23T03:56:07.242Z,1008.20
2017-05-23T03:57:08.701Z,1008.23
2017-05-23T03:58:10.162Z,1008.19
2017-05-23T03:59:11.624Z,1008.21
2017-05-23T04:00:13.084Z,1008.25
2017-05-23T04:01:14.540Z,1008.23
2017-05-23T04:02:16.017Z,1008.24
2017-05-23T04:03:17.476Z,1008.22
2017-05-23T04:04:18.941Z,1008.23
2017-05-23T04:05:20.400Z,1008.21
2017-05-23T04:06:22.002Z,1008.22
2017-05-23T04:07:23.460Z,1008.24
2017-05-23T04:08:24.944Z,1008.23
2017-05-23T04:09:26.403Z,1008.24
2017-05-23T04:10:27.916Z,1008.27
2017-05-23T04:11:29.378Z,1008.26
2017-05-23T04:12:30.835Z,1008.26
2017-05-23T04:13:32.304Z,1008.23
2017-05-23T04:14:33.771Z,1008.25
2017-05-23T04:15:35.225Z,1008.25
2017-05-23T04:16:36.693Z,1008.26
2017-05-23T04:17:38.140Z,1008.28
2017-05-23T04:18:39.604Z,1008.25
2017-05-23T04:19:41.065Z,1008.24
2017-05-23T04:20:42.525Z,1008.24
2017-05-23T04:21:43.981Z,1008.24
2017-05-23T04:22:45.442Z,1008.26
2017-05-23T04:23:46.901Z,1008.29
2017-05-23T04:24:48.365Z,1008.30
2017-05-23T04:25:49.832Z,1008.28
2017-05-23T04:26:51.300Z,1008.27
2017-05-23T04:27:52.767Z,1008.32
2017-05-23T04:28:54.228Z,1008.30
2017-05-23T04:29:55.686Z,1008.30
2017-05-23T04:30:57.159Z,1008.31
2017-05-23T04:31:58.624Z,1008.35
2017-05-23T04:33:00.084Z,1008.33
2017-05-23T04:34:01.548Z,1008.38
2017-05-23T04:35:03.013Z,1008.41
2017-05-23T04:36:04.547Z,1008.44
2017-05-23T04:37:06.009Z,1008.42
2017-05-23T04:38:07.467Z,1008.42
2017-05-23T04:39:08.939Z,1008.45
2017-05-23T04:40:10.402Z,1008.44
2017-05-23T04:41:11.868Z,1008.45
2017-05-23T04:42:13.333Z,1008.40
2017-05-23T04:43:14.793Z,1008.45
2017-05-23T04:44:16.260Z,1008.47
2017-05-23T04:45:17.721Z,1008.45
2017-05-23T04:46:19.179Z,1008.46
2017-05-23T04:47:20.639Z,1008.50
2017-05-23T04:48:22.104Z,1008.51
2017-05-23T04:49:23.566Z,1008.55
2017-05-23T04:50:25.030Z,1008.60
2017-05-23T04:51:26.488Z,1008.53
2017-05-23T04:52:27.967Z,1008.53
2017-05-23T04:53:29.426Z,1008.55
2017-05-23T04:54:30.889Z,1008.56
2017-05-23T04:55:32.358Z,1008.56
2017-05-23T04:56:33.823Z,1008.57
2017-05-23T04:57:35.288Z,1008.57
2017-05-23T04:58:36.753Z,1008.60
2017-05-23T04:59:38.231Z,1008.61
2017-05-23T05:00:39.700Z,1008.61
2017-05-23T05:01:41.164Z,1008.60
2017-05-23T05:02:42.629Z,1008.61
2017-05-23T05:03:44.094Z,1008.64
2017-05-23T05:04:45.561Z,1008.65
2017-05-23T05:05:47.019Z,1008.62
2017-05-23T05:06:48.495Z,1008.61
2017-05-23T05:07:49.979Z,1008.60
2017-05-23T05:08:51.451Z,1008.60
2017-05-23T05:09:52.922Z,1008.61
2017-05-23T05:10:54.386Z,1008.62
2017-05-23T05:11:55.849Z,1008.62
2017-05-23T05:12:57.317Z,1008.61
2017-05-23T05:13:58.789Z,1008.64
2017-05-23T05:15:00.253Z,1008.63
2017-05-23T05:16:01.717Z,1008.59
2017-05-23T05:17:03.183Z,1008.63
2017-05-23T05:18:04.652Z,1008.65
2017-05-23T05:19:06.111Z,1008.65
2017-05-23T05:20:07.573Z,1008.64
2017-05-23T05:21:09.032Z,1008.69
2017-05-23T05:22:10.503Z,1008.71
2017-05-23T05:23:11.963Z,1008.70
2017-05-23T05:24:13.436Z,1008.75
2017-05-23T05:25:14.901Z,1008.76
2017-05-23T05:26:16.365Z,1008.79
2017-05-23T05:27:17.831Z,1008.83
2017-05-23T05:28:19.297Z,1008.83
2017-05-23T05:29:20.761Z,1008.82
2017-05-23T05:30:22.253Z,1008.80
2017-05-23T05:31:23.720Z,1008.83
2017-05-23T05:32:25.196Z,1008.78
2017-05-23T05:33:26.659Z,1008.85
2017-05-23T05:34:28.127Z,1008.77
2017-05-23T05:35:29.593Z,1008.84
2017-05-23T05:36:31.066Z,1008.84
2017-05-23T05:37:32.531Z,1008.81
2017-05-23T05:38:33.997Z,1008.87
2017-05-23T05:39:35.465Z,1008.84
2017-05-23T05:40:36.933Z,1008.87
2017-05-23T05:41:38.406Z,1008.84
2017-05-23T05:42:39.871Z,1008.90
2017-05-23T05:43:41.345Z,1008.96
2017-05-23T05:44:42.822Z,1008.96
2017-05-23T05:45:44.338Z,1008.92
2017-05-23T05:46:45.806Z,1008.94
2017-05-23T05:47:47.270Z,1008.82
2017-05-23T05:48:48.747Z,1008.82
2017-05-23T05:49:50.206Z,1008.78
2017-05-23T05:50:51.683Z,1008.77
2017-05-23T05:51:53.144Z,1008.81
2017-05-23T05:52:54.618Z,1008.92
2017-05-23T05:53:56.103Z,1008.92
2017-05-23T05:54:57.567Z,1008.94
2017-05-23T05:55:59.046Z,1008.99
2017-05-23T05:57:00.511Z,1008.87
2017-05-23T05:58:01.984Z,1008.92
2017-05-23T05:59:03.459Z,1008.95
2017-05-23T06:00:04.962Z,1008.90
2017-05-23T06:01:06.438Z,1009.08
2017-05-23T06:02:07.913Z,1009.10
2017-05-23T06:03:09.381Z,1009.04
2017-05-23T06:04:10.849Z,1009.07
2017-05-23T06:05:12.332Z,1009.11
2017-05-23T06:06:13.802Z,1009.06
2017-05-23T06:07:15.278Z,1008.99
2017-05-23T06:08:16.750Z,1008.90
2017-05-23T06:09:18.221Z,1008.99
2017-05-23T06:10:19.686Z,1008.99
2017-05-23T06:11:21.160Z,1009.03
2017-05-23T06:12:22.630Z,1009.16
2017-05-23T06:13:24.099Z,1009.08
2017-05-23T06:14:25.572Z,1008.96
2017-05-23T06:15:27.048Z,1009.13
2017-05-23T06:16:28.540Z,1009.00
2017-05-23T06:17:30.012Z,1009.16
2017-05-23T06:18:31.487Z,1009.13
2017-05-23T06:19:32.957Z,1009.17
2017-05-23T06:20:34.445Z,1009.19
2017-05-23T06:21:35.925Z,1009.17
2017-05-23T06:22:37.399Z,1009.23
2017-05-23T06:23:38.898Z,1009.22
2017-05-23T06:24:40.367Z,1009.24
2017-05-23T06:25:41.839Z,1009.26
2017-05-23T06:26:43.314Z,1009.30
2017-05-23T06:27:44.795Z,1009.27
2017-05-23T06:28:46.266Z,1009.33
2017-05-23T06:29:47.746Z,1009.35
2017-05-23T06:30:49.218Z,1009.41
2017-05-23T06:31:50.689Z,1009.45
2017-05-23T06:32:52.176Z,1009.46
2017-05-23T06:34:30.763Z,1009.43
2017-05-23T06:35:32.241Z,1009.44
2017-05-23T06:36:53.787Z,1009.46
2017-05-23T06:37:55.257Z,1009.41
2017-05-23T06:39:55.791Z,1009.40
2017-05-23T06:41:11.058Z,1009.32
2017-05-23T06:42:12.528Z,1009.46
2017-05-23T06:43:34.078Z,1009.46
2017-05-23T06:44:35.563Z,1009.45
2017-05-23T06:45:57.380Z,1009.59
2017-05-23T06:46:58.847Z,1009.81
2017-05-23T06:48:20.394Z,1009.96
2017-05-23T06:49:21.867Z,1009.91
2017-05-23T06:50:43.415Z,1009.97
2017-05-23T06:51:44.890Z,1010.17
2017-05-23T06:53:06.730Z,1010.93
2017-05-23T06:54:08.204Z,1010.76
2017-05-23T06:55:29.763Z,1010.32
2017-05-23T06:56:31.250Z,1010.37
2017-05-23T06:57:52.814Z,1009.70
2017-05-23T06:58:54.304Z,1009.98
2017-05-23T07:00:16.120Z,1009.83
2017-05-23T07:01:17.592Z,1010.17
2017-05-23T07:02:39.145Z,1010.20
2017-05-23T07:03:40.616Z,1010.00
2017-05-23T07:05:02.155Z,1010.12
2017-05-23T07:06:03.663Z,1010.13
2017-05-23T07:07:26.509Z,1010.26
2017-05-23T07:08:27.983Z,1010.18
2017-05-23T07:09:49.539Z,1009.89
2017-05-23T07:10:51.012Z,1010.19
2017-05-23T07:12:12.555Z,1009.99
2017-05-23T07:13:14.033Z,1009.80
2017-05-23T07:14:36.943Z,1009.66
2017-05-23T07:15:38.420Z,1009.96
2017-05-23T07:16:59.964Z,1009.68
2017-05-23T07:18:01.446Z,1009.77
2017-05-23T07:19:22.998Z,1010.01
2017-05-23T07:20:24.489Z,1009.87
2017-05-23T07:21:46.364Z,1010.07
2017-05-23T07:22:47.906Z,1009.54
2017-05-23T07:24:09.457Z,1009.36
2017-05-23T07:25:10.928Z,1009.39
2017-05-23T07:26:32.485Z,1009.32
2017-05-23T07:27:33.961Z,1009.36
2017-05-23T07:28:55.798Z,1009.42
2017-05-23T07:29:57.269Z,1009.48
2017-05-23T07:31:18.823Z,1009.73
2017-05-23T07:32:20.306Z,1010.15
2017-05-23T07:33:41.849Z,1010.24
2017-05-23T07:34:43.318Z,1010.23
2017-05-23T07:36:05.150Z,1010.24
2017-05-23T07:37:06.640Z,1010.10
2017-05-23T07:38:28.547Z,1010.20
2017-05-23T07:39:30.370Z,1010.17
2017-05-23T07:40:52.386Z,1010.19
2017-05-23T07:41:54.109Z,1010.07
2017-05-23T07:43:16.297Z,1010.01
2017-05-23T07:44:18.128Z,1009.96
2017-05-23T07:45:39.694Z,1009.95
2017-05-23T07:46:41.177Z,1009.93
2017-05-23T07:48:02.717Z,1009.94
2017-05-23T07:49:04.194Z,1009.89
2017-05-23T07:50:26.020Z,1009.95
2017-05-23T07:51:27.492Z,1009.86
2017-05-23T07:52:49.067Z,1009.96
2017-05-23T07:53:50.549Z,1009.83
2017-05-23T07:55:12.099Z,1009.72
2017-05-23T07:56:13.572Z,1009.75
2017-05-23T07:57:35.418Z,1009.65
2017-05-23T07:58:36.940Z,1009.63
2017-05-23T07:59:58.494Z,1009.48
2017-05-23T08:00:59.973Z,1009.64
2017-05-23T08:02:21.553Z,1009.79
2017-05-23T08:03:23.031Z,1009.81
2017-05-23T08:04:44.888Z,1009.76
2017-05-23T08:05:46.357Z,1009.68
2017-05-23T08:07:07.904Z,1009.65
2017-05-23T08:08:09.384Z,1009.56
2017-05-23T08:09:30.932Z,1009.71
2017-05-23T08:10:32.402Z,1009.61
2017-05-23T08:11:55.266Z,1009.56
2017-05-23T08:12:56.743Z,1009.53
2017-05-23T08:14:18.497Z,1009.52
2017-05-23T08:15:19.968Z,1009.45
2017-05-23T08:16:42.536Z,1009.46
2017-05-23T08:17:44.053Z,1009.48
2017-05-23T08:19:05.898Z,1009.43
2017-05-23T08:20:07.376Z,1009.53
2017-05-23T08:21:28.933Z,1009.59
2017-05-23T08:22:30.408Z,1009.55
2017-05-23T08:23:51.962Z,1009.56
2017-05-23T08:24:53.443Z,1009.59
2017-05-23T08:26:16.379Z,1009.57
2017-05-23T08:27:17.857Z,1009.64
2017-05-23T08:28:40.438Z,1009.59
2017-05-23T08:29:41.920Z,1009.62
2017-05-23T08:31:03.472Z,1009.60
2017-05-23T08:32:04.948Z,1009.71
2017-05-23T08:33:26.826Z,1009.72
2017-05-23T08:34:28.304Z,1009.72
2017-05-23T08:35:49.894Z,1009.73
2017-05-23T08:36:51.370Z,1009.68
2017-05-23T08:38:12.914Z,1009.60
2017-05-23T08:39:14.388Z,1009.56
2017-05-23T08:40:36.245Z,1009.65
2017-05-23T08:41:37.722Z,1009.68
2017-05-23T08:42:59.462Z,1009.65
2017-05-23T08:44:00.941Z,1009.63
2017-05-23T08:45:23.495Z,1009.72
2017-05-23T08:46:24.975Z,1009.65
2017-05-23T08:47:46.813Z,1009.73
2017-05-23T08:48:48.288Z,1009.79
2017-05-23T08:50:09.849Z,1009.72
2017-05-23T08:51:11.347Z,1009.71
2017-05-23T08:52:32.900Z,1009.62
2017-05-23T08:53:34.389Z,1009.73
2017-05-23T08:54:56.264Z,1009.74
2017-05-23T08:55:57.748Z,1009.72
2017-05-23T08:57:19.297Z,1009.81
2017-05-23T08:58:20.788Z,1009.77
2017-05-23T08:59:43.359Z,1009.78
2017-05-23T09:00:44.834Z,1009.77
2017-05-23T09:02:07.713Z,1009.74
2017-05-23T09:03:09.193Z,1009.78
2017-05-23T09:04:31.751Z,1009.73
2017-05-23T09:05:33.249Z,1009.88
2017-05-23T09:06:55.819Z,1009.86
2017-05-23T09:07:57.317Z,1009.83
2017-05-23T09:09:19.188Z,1009.90
2017-05-23T09:10:20.681Z,1009.91
2017-05-23T09:11:42.247Z,1009.97
2017-05-23T09:12:43.726Z,1009.93
2017-05-23T09:14:05.283Z,1009.92
2017-05-23T09:15:06.756Z,1009.92
2017-05-23T09:16:28.610Z,1009.85
2017-05-23T09:17:30.105Z,1009.87
2017-05-23T09:18:51.670Z,1009.95
2017-05-23T09:19:53.175Z,1009.94
2017-05-23T09:21:14.767Z,1009.97
2017-05-23T09:22:16.236Z,1009.92
2017-05-23T09:23:38.078Z,1010.01
2017-05-23T09:24:39.610Z,1009.98
2017-05-23T09:26:02.233Z,1010.04
2017-05-23T09:27:03.706Z,1009.99
2017-05-23T09:28:25.274Z,1010.14
2017-05-23T09:29:26.791Z,1010.12
2017-05-23T09:30:48.657Z,1010.12
2017-05-23T09:31:50.148Z,1010.09
2017-05-23T09:33:12.775Z,1010.04
2017-05-23T09:34:14.292Z,1010.05
2017-05-23T09:35:35.843Z,1010.04
2017-05-23T09:36:37.318Z,1010.09
2017-05-23T09:37:59.148Z,1010.08
2017-05-23T09:39:00.629Z,1010.08
2017-05-23T09:40:22.186Z,1010.05
2017-05-23T09:41:23.696Z,1010.08
2017-05-23T09:42:45.261Z,1010.15
2017-05-23T09:43:46.748Z,1010.20
2017-05-23T09:45:08.613Z,1010.28
2017-05-23T09:46:10.089Z,1010.23
2017-05-23T09:47:31.687Z,1010.21
2017-05-23T09:48:33.185Z,1010.24
2017-05-23T09:49:54.738Z,1010.22
2017-05-23T09:50:56.223Z,1010.24
2017-05-23T09:52:18.084Z,1010.34
2017-05-23T09:53:19.575Z,1010.12
2017-05-23T09:54:42.185Z,1010.24
2017-05-23T09:55:43.663Z,1010.19
2017-05-23T09:57:06.218Z,1010.22
2017-05-23T09:58:07.694Z,1010.25
2017-05-23T09:59:29.598Z,1010.25
2017-05-23T10:00:31.078Z,1010.15
2017-05-23T10:01:53.630Z,1010.26
2017-05-23T10:02:55.134Z,1010.22
2017-05-23T10:04:16.689Z,1010.33
2017-05-23T10:05:18.167Z,1010.30
2017-05-23T10:06:41.008Z,1010.45
2017-05-23T10:07:42.503Z,1010.26
2017-05-23T10:09:04.075Z,1010.31
2017-05-23T10:10:05.559Z,1010.30
2017-05-23T10:11:27.137Z,1010.48
2017-05-23T10:12:28.644Z,1010.56
2017-05-23T10:13:50.487Z,1010.54
2017-05-23T10:14:51.972Z,1010.41
2017-05-23T10:16:13.562Z,1010.38
2017-05-23T10:17:15.052Z,1010.43
2017-05-23T10:18:37.658Z,1010.31
2017-05-23T10:19:39.178Z,1010.25
2017-05-23T10:21:02.018Z,1010.16
2017-05-23T10:22:03.506Z,1010.24
2017-05-23T10:23:26.064Z,1010.18
2017-05-23T10:24:27.541Z,1010.18
2017-05-23T10:25:49.164Z,1010.20
2017-05-23T10:26:50.639Z,1010.18
2017-05-23T10:28:12.491Z,1010.23
2017-05-23T10:29:14.017Z,1010.34
2017-05-23T10:30:35.551Z,1010.18
2017-05-23T10:31:37.029Z,1010.27
2017-05-23T10:32:58.588Z,1010.24
2017-05-23T10:34:00.123Z,1010.20
2017-05-23T10:35:22.951Z,1010.31
2017-05-23T10:36:24.437Z,1010.20
2017-05-23T10:37:45.991Z,1010.50
2017-05-23T10:38:47.466Z,1010.60
2017-05-23T10:40:09.026Z,1010.31
2017-05-23T10:41:10.505Z,1010.20
2017-05-23T10:42:32.432Z,1010.20
2017-05-23T10:43:33.944Z,1010.34
2017-05-23T10:44:55.539Z,1010.26
2017-05-23T10:45:57.017Z,1010.25
2017-05-23T10:47:18.559Z,1010.17
2017-05-23T10:48:20.053Z,1010.33
2017-05-23T10:49:41.893Z,1010.37
2017-05-23T10:50:43.462Z,1010.46
2017-05-23T10:52:05.036Z,1010.38
2017-05-23T10:53:06.530Z,1010.34
2017-05-23T10:54:28.283Z,1010.39
2017-05-23T10:55:29.763Z,1010.42
2017-05-23T10:56:51.594Z,1010.56
2017-05-23T10:57:53.083Z,1010.63
2017-05-23T10:59:14.638Z,1010.72
2017-05-23T11:00:16.118Z,1010.58
2017-05-23T11:01:37.676Z,1010.59
2017-05-23T11:02:39.151Z,1010.64
2017-05-23T11:04:00.986Z,1010.64
2017-05-23T11:05:02.474Z,1010.72
2017-05-23T11:06:25.038Z,1010.65
2017-05-23T11:07:26.527Z,1010.61
2017-05-23T11:08:48.076Z,1010.57
2017-05-23T11:09:49.556Z,1010.66
2017-05-23T11:11:11.415Z,1010.57
2017-05-23T11:12:12.900Z,1010.61
2017-05-23T11:13:34.458Z,1010.63
2017-05-23T11:14:35.934Z,1010.72
2017-05-23T11:15:57.484Z,1010.78
2017-05-23T11:16:58.969Z,1010.75
2017-05-23T11:18:20.795Z,1010.63
2017-05-23T11:19:22.270Z,1010.68
2017-05-23T11:20:43.828Z,1010.65
2017-05-23T11:21:45.308Z,1010.68
2017-05-23T11:23:06.858Z,1010.59
2017-05-23T11:24:08.347Z,1010.63
2017-05-23T11:25:30.208Z,1010.66
2017-05-23T11:26:31.697Z,1010.57
2017-05-23T11:27:53.249Z,1010.59
2017-05-23T11:28:54.727Z,1010.64
2017-05-23T11:30:16.285Z,1010.63
2017-05-23T11:31:17.752Z,1010.63
2017-05-23T11:32:39.605Z,1010.55
2017-05-23T11:33:41.081Z,1010.55
2017-05-23T11:35:02.643Z,1010.63
2017-05-23T11:36:04.114Z,1010.74
2017-05-23T11:37:25.661Z,1010.75
2017-05-23T11:38:27.137Z,1010.70
2017-05-23T11:39:48.983Z,1010.78
2017-05-23T11:40:50.474Z,1010.64
2017-05-23T11:42:12.023Z,1010.67
2017-05-23T11:43:13.501Z,1010.67
2017-05-23T11:44:36.052Z,1010.70
2017-05-23T11:45:37.530Z,1010.64
2017-05-23T11:46:59.377Z,1010.84
2017-05-23T11:48:00.862Z,1010.87
2017-05-23T11:49:22.457Z,1010.85
2017-05-23T11:50:23.930Z,1010.77
2017-05-23T11:51:45.483Z,1010.86
2017-05-23T11:52:46.959Z,1010.88
2017-05-23T11:54:08.800Z,1010.74
2017-05-23T11:55:10.275Z,1010.95
2017-05-23T11:56:31.860Z,1010.86
2017-05-23T11:57:33.334Z,1010.80
2017-05-23T11:58:55.889Z,1010.73
2017-05-23T11:59:57.373Z,1010.79
2017-05-23T12:01:19.240Z,1010.73
2017-05-23T12:02:20.739Z,1010.73
2017-05-23T12:03:42.293Z,1010.77
2017-05-23T12:04:43.783Z,1010.76
2017-05-23T12:06:05.346Z,1010.77
2017-05-23T12:07:06.837Z,1010.86
2017-05-23T12:08:28.703Z,1010.84
2017-05-23T12:09:30.173Z,1010.84
2017-05-23T12:10:51.762Z,1010.77
2017-05-23T12:11:53.249Z,1010.87
2017-05-23T12:13:14.829Z,1010.86
2017-05-23T12:14:16.311Z,1010.89
2017-05-23T12:15:38.173Z,1010.74
2017-05-23T12:16:39.656Z,1010.71
2017-05-23T12:18:01.241Z,1010.73
2017-05-23T12:19:02.734Z,1010.65
2017-05-23T12:20:24.300Z,1010.58
2017-05-23T12:21:25.776Z,1010.71
2017-05-23T12:22:47.727Z,1010.72
2017-05-23T12:23:49.202Z,1010.70
2017-05-23T12:25:10.759Z,1010.81
2017-05-23T12:26:12.253Z,1010.87
2017-05-23T12:27:33.807Z,1010.79
2017-05-23T12:28:35.296Z,1010.85
2017-05-23T12:29:58.132Z,1010.88
2017-05-23T12:30:59.611Z,1010.88
2017-05-23T12:32:21.157Z,1010.98
2017-05-23T12:33:22.636Z,1011.03
2017-05-23T12:34:44.183Z,1011.11
2017-05-23T12:35:45.654Z,1011.16
2017-05-23T12:36:47.132Z,1011.14
2017-05-23T12:37:48.619Z,1011.14
2017-05-23T12:38:50.097Z,1011.16
2017-05-23T12:39:51.603Z,1011.36
2017-05-23T12:40:53.063Z,1011.51
2017-05-23T12:41:54.540Z,1011.59
2017-05-23T12:42:56.019Z,1011.77
2017-05-23T12:43:57.529Z,1011.15
2017-05-23T12:44:59.012Z,1011.10
2017-05-23T12:46:00.490Z,1012.32
2017-05-23T12:47:01.965Z,1011.28
2017-05-23T12:48:03.452Z,1012.79
2017-05-23T12:49:04.934Z,1013.12
2017-05-23T12:50:06.419Z,1012.88
2017-05-23T12:51:07.892Z,1012.52
2017-05-23T12:52:09.370Z,1011.66
2017-05-23T12:53:10.852Z,1011.46
2017-05-23T12:54:12.692Z,1011.45
2017-05-23T12:55:14.261Z,1011.58
2017-05-23T12:56:15.761Z,1011.59
2017-05-23T12:57:17.359Z,1012.17
2017-05-23T12:58:18.847Z,1013.82
2017-05-23T12:59:20.328Z,1014.52
2017-05-23T13:00:21.825Z,1013.34
2017-05-23T13:01:23.317Z,1011.81
2017-05-23T13:02:24.802Z,1011.53
2017-05-23T13:03:26.375Z,1011.44
2017-05-23T13:04:27.851Z,1011.04
2017-05-23T13:05:29.332Z,1011.02
2017-05-23T13:06:30.827Z,1010.89
2017-05-23T13:07:32.313Z,1010.93
2017-05-23T13:08:33.790Z,1010.79
2017-05-23T13:09:35.312Z,1010.68
2017-05-23T13:10:36.787Z,1010.68
2017-05-23T13:11:38.269Z,1010.90
2017-05-23T13:12:39.750Z,1011.06
2017-05-23T13:13:41.234Z,1010.93
2017-05-23T13:14:42.706Z,1011.03
2017-05-23T13:15:44.187Z,1010.93